sensor_id;sensor_type;location;lat;lon;timestamp;P1;durP1;ratioP1;P2;durP2;ratioP2
12042;SDS011;6082;49.306;12.862;2023-03-14T00:02:22;4.23;;;1.70;;
12042;SDS011;6082;49.306;12.862;2023-03-14T00:04:48;2.60;;;1.03;;
12042;SDS011;6082;49.306;12.862;2023-03-14T00:07:14;1.00;;;0.77;;
12042;SDS011;6082;49.306;12.862;2023-03-14T00:09:40;0.70;;;0.70;;
12042;SDS011;6082;49.306;12.862;2023-03-14T00:12:06;0.70;;;0.60;;
12042;SDS011;6082;49.306;12.862;2023-03-14T00:14:32;0.60;;;0.50;;
12042;SDS011;6082;49.306;12.862;2023-03-14T00:16:59;1.23;;;0.77;;
12042;SDS011;6082;49.306;12.862;2023-03-14T00:19:25;1.53;;;0.53;;
12042;SDS011;6082;49.306;12.862;2023-03-14T00:21:51;0.80;;;0.70;;
12042;SDS011;6082;49.306;12.862;2023-03-14T00:24:17;0.67;;;0.57;;
12042;SDS011;6082;49.306;12.862;2023-03-14T00:26:43;1.10;;;0.70;;
12042;SDS011;6082;49.306;12.862;2023-03-14T00:29:09;0.70;;;0.70;;
12042;SDS011;6082;49.306;12.862;2023-03-14T00:31:35;0.60;;;0.50;;
12042;SDS011;6082;49.306;12.862;2023-03-14T00:34:02;0.90;;;0.60;;
12042;SDS011;6082;49.306;12.862;2023-03-14T00:36:28;0.60;;;0.60;;
12042;SDS011;6082;49.306;12.862;2023-03-14T00:38:54;0.70;;;0.70;;
12042;SDS011;6082;49.306;12.862;2023-03-14T00:41:21;0.90;;;0.70;;
12042;SDS011;6082;49.306;12.862;2023-03-14T00:43:47;0.80;;;0.70;;
12042;SDS011;6082;49.306;12.862;2023-03-14T00:46:13;0.97;;;0.70;;
12042;SDS011;6082;49.306;12.862;2023-03-14T00:48:40;0.70;;;0.60;;
12042;SDS011;6082;49.306;12.862;2023-03-14T00:51:06;1.40;;;0.90;;
12042;SDS011;6082;49.306;12.862;2023-03-14T00:53:36;1.00;;;0.63;;
12042;SDS011;6082;49.306;12.862;2023-03-14T00:56:03;0.73;;;0.70;;
12042;SDS011;6082;49.306;12.862;2023-03-14T00:58:29;0.93;;;0.60;;
12042;SDS011;6082;49.306;12.862;2023-03-14T01:00:55;1.13;;;0.73;;
12042;SDS011;6082;49.306;12.862;2023-03-14T01:03:22;0.40;;;0.40;;
12042;SDS011;6082;49.306;12.862;2023-03-14T01:05:49;0.60;;;0.50;;
12042;SDS011;6082;49.306;12.862;2023-03-14T01:08:15;0.60;;;0.60;;
12042;SDS011;6082;49.306;12.862;2023-03-14T01:10:41;0.60;;;0.40;;
12042;SDS011;6082;49.306;12.862;2023-03-14T01:13:08;0.70;;;0.70;;
12042;SDS011;6082;49.306;12.862;2023-03-14T01:15:36;0.73;;;0.50;;
12042;SDS011;6082;49.306;12.862;2023-03-14T01:18:02;0.90;;;0.53;;
12042;SDS011;6082;49.306;12.862;2023-03-14T01:20:28;2.80;;;0.57;;
12042;SDS011;6082;49.306;12.862;2023-03-14T01:22:54;1.30;;;0.80;;
12042;SDS011;6082;49.306;12.862;2023-03-14T01:25:21;2.90;;;0.80;;
12042;SDS011;6082;49.306;12.862;2023-03-14T01:27:47;1.60;;;0.70;;
12042;SDS011;6082;49.306;12.862;2023-03-14T01:30:13;0.73;;;0.67;;
12042;SDS011;6082;49.306;12.862;2023-03-14T01:32:39;0.80;;;0.70;;
12042;SDS011;6082;49.306;12.862;2023-03-14T01:35:08;1.80;;;0.60;;
12042;SDS011;6082;49.306;12.862;2023-03-14T01:37:34;1.10;;;0.87;;
12042;SDS011;6082;49.306;12.862;2023-03-14T01:40:00;0.77;;;0.70;;
12042;SDS011;6082;49.306;12.862;2023-03-14T01:42:26;1.53;;;0.80;;
12042;SDS011;6082;49.306;12.862;2023-03-14T01:44:53;0.83;;;0.70;;
12042;SDS011;6082;49.306;12.862;2023-03-14T01:47:20;1.23;;;0.80;;
12042;SDS011;6082;49.306;12.862;2023-03-14T01:49:47;1.60;;;0.90;;
12042;SDS011;6082;49.306;12.862;2023-03-14T01:52:16;1.83;;;0.97;;
12042;SDS011;6082;49.306;12.862;2023-03-14T01:54:46;2.37;;;1.20;;
12042;SDS011;6082;49.306;12.862;2023-03-14T01:59:52;1.30;;;0.77;;
12042;SDS011;6082;49.306;12.862;2023-03-14T02:02:18;2.40;;;1.03;;
12042;SDS011;6082;49.306;12.862;2023-03-14T02:04:44;1.20;;;0.70;;
12042;SDS011;6082;49.306;12.862;2023-03-14T02:07:12;1.10;;;0.90;;
12042;SDS011;6082;49.306;12.862;2023-03-14T02:09:40;1.27;;;1.00;;
12042;SDS011;6082;49.306;12.862;2023-03-14T02:12:07;0.60;;;0.60;;
12042;SDS011;6082;49.306;12.862;2023-03-14T02:14:35;0.83;;;0.70;;
12042;SDS011;6082;49.306;12.862;2023-03-14T02:17:02;0.53;;;0.50;;
12042;SDS011;6082;49.306;12.862;2023-03-14T02:24:39;0.30;;;0.30;;
12042;SDS011;6082;49.306;12.862;2023-03-14T02:27:11;0.60;;;0.50;;
12042;SDS011;6082;49.306;12.862;2023-03-14T02:29:45;0.90;;;0.70;;
12042;SDS011;6082;49.306;12.862;2023-03-14T02:32:12;0.60;;;0.40;;
12042;SDS011;6082;49.306;12.862;2023-03-14T02:34:38;0.67;;;0.50;;
12042;SDS011;6082;49.306;12.862;2023-03-14T02:37:09;0.70;;;0.70;;
12042;SDS011;6082;49.306;12.862;2023-03-14T02:39:40;0.40;;;0.40;;
12042;SDS011;6082;49.306;12.862;2023-03-14T02:42:07;0.70;;;0.60;;
12042;SDS011;6082;49.306;12.862;2023-03-14T02:44:33;1.73;;;0.73;;
12042;SDS011;6082;49.306;12.862;2023-03-14T02:47:00;0.80;;;0.60;;
12042;SDS011;6082;49.306;12.862;2023-03-14T02:49:27;0.60;;;0.60;;
12042;SDS011;6082;49.306;12.862;2023-03-14T02:51:55;0.50;;;0.50;;
12042;SDS011;6082;49.306;12.862;2023-03-14T02:54:21;0.73;;;0.60;;
12042;SDS011;6082;49.306;12.862;2023-03-14T02:56:47;0.80;;;0.50;;
12042;SDS011;6082;49.306;12.862;2023-03-14T02:59:13;0.87;;;0.50;;
12042;SDS011;6082;49.306;12.862;2023-03-14T03:01:39;1.33;;;0.60;;
12042;SDS011;6082;49.306;12.862;2023-03-14T03:04:05;1.20;;;0.70;;
12042;SDS011;6082;49.306;12.862;2023-03-14T03:06:31;0.43;;;0.40;;
12042;SDS011;6082;49.306;12.862;2023-03-14T03:08:57;2.33;;;0.67;;
12042;SDS011;6082;49.306;12.862;2023-03-14T03:11:23;0.77;;;0.60;;
12042;SDS011;6082;49.306;12.862;2023-03-14T03:13:50;0.80;;;0.60;;
12042;SDS011;6082;49.306;12.862;2023-03-14T03:16:16;0.50;;;0.50;;
12042;SDS011;6082;49.306;12.862;2023-03-14T03:18:42;2.07;;;0.70;;
12042;SDS011;6082;49.306;12.862;2023-03-14T03:21:08;0.73;;;0.50;;
12042;SDS011;6082;49.306;12.862;2023-03-14T03:23:34;0.40;;;0.40;;
12042;SDS011;6082;49.306;12.862;2023-03-14T03:26:00;0.47;;;0.47;;
12042;SDS011;6082;49.306;12.862;2023-03-14T03:28:28;1.43;;;0.53;;
12042;SDS011;6082;49.306;12.862;2023-03-14T03:30:54;0.50;;;0.50;;
12042;SDS011;6082;49.306;12.862;2023-03-14T03:33:20;0.73;;;0.47;;
12042;SDS011;6082;49.306;12.862;2023-03-14T03:35:48;0.40;;;0.40;;
12042;SDS011;6082;49.306;12.862;2023-03-14T03:38:15;0.80;;;0.70;;
12042;SDS011;6082;49.306;12.862;2023-03-14T03:40:41;2.53;;;0.73;;
12042;SDS011;6082;49.306;12.862;2023-03-14T03:43:07;1.47;;;0.90;;
12042;SDS011;6082;49.306;12.862;2023-03-14T03:45:34;1.37;;;0.83;;
12042;SDS011;6082;49.306;12.862;2023-03-14T03:48:00;1.03;;;0.70;;
12042;SDS011;6082;49.306;12.862;2023-03-14T03:50:26;1.57;;;0.80;;
12042;SDS011;6082;49.306;12.862;2023-03-14T03:52:52;0.80;;;0.80;;
12042;SDS011;6082;49.306;12.862;2023-03-14T03:55:18;0.70;;;0.60;;
12042;SDS011;6082;49.306;12.862;2023-03-14T03:57:44;0.87;;;0.60;;
12042;SDS011;6082;49.306;12.862;2023-03-14T04:00:10;1.07;;;0.70;;
12042;SDS011;6082;49.306;12.862;2023-03-14T04:02:37;0.90;;;0.73;;
12042;SDS011;6082;49.306;12.862;2023-03-14T04:05:03;1.03;;;0.70;;
12042;SDS011;6082;49.306;12.862;2023-03-14T04:07:33;1.67;;;0.80;;
12042;SDS011;6082;49.306;12.862;2023-03-14T04:09:59;1.10;;;0.77;;
12042;SDS011;6082;49.306;12.862;2023-03-14T04:12:25;1.10;;;0.70;;
12042;SDS011;6082;49.306;12.862;2023-03-14T04:14:51;1.17;;;0.80;;
12042;SDS011;6082;49.306;12.862;2023-03-14T04:17:17;1.03;;;0.77;;
12042;SDS011;6082;49.306;12.862;2023-03-14T04:19:43;0.83;;;0.73;;
12042;SDS011;6082;49.306;12.862;2023-03-14T04:22:09;0.93;;;0.73;;
12042;SDS011;6082;49.306;12.862;2023-03-14T04:24:35;1.80;;;0.83;;
12042;SDS011;6082;49.306;12.862;2023-03-14T04:27:01;1.43;;;0.90;;
12042;SDS011;6082;49.306;12.862;2023-03-14T04:29:28;0.83;;;0.60;;
12042;SDS011;6082;49.306;12.862;2023-03-14T04:31:54;0.90;;;0.73;;
12042;SDS011;6082;49.306;12.862;2023-03-14T04:34:20;1.87;;;0.80;;
12042;SDS011;6082;49.306;12.862;2023-03-14T04:36:46;1.03;;;0.90;;
12042;SDS011;6082;49.306;12.862;2023-03-14T04:39:12;0.90;;;0.70;;
12042;SDS011;6082;49.306;12.862;2023-03-14T04:41:38;1.63;;;0.70;;
12042;SDS011;6082;49.306;12.862;2023-03-14T04:44:04;1.03;;;0.67;;
12042;SDS011;6082;49.306;12.862;2023-03-14T04:46:30;0.60;;;0.60;;
12042;SDS011;6082;49.306;12.862;2023-03-14T04:48:56;0.60;;;0.50;;
12042;SDS011;6082;49.306;12.862;2023-03-14T04:51:22;0.40;;;0.40;;
12042;SDS011;6082;49.306;12.862;2023-03-14T04:53:52;1.17;;;0.57;;
12042;SDS011;6082;49.306;12.862;2023-03-14T04:56:18;0.40;;;0.40;;
12042;SDS011;6082;49.306;12.862;2023-03-14T04:58:44;0.40;;;0.40;;
12042;SDS011;6082;49.306;12.862;2023-03-14T05:01:12;0.53;;;0.50;;
12042;SDS011;6082;49.306;12.862;2023-03-14T05:03:38;0.57;;;0.53;;
12042;SDS011;6082;49.306;12.862;2023-03-14T05:06:04;0.80;;;0.60;;
12042;SDS011;6082;49.306;12.862;2023-03-14T05:08:30;0.47;;;0.40;;
12042;SDS011;6082;49.306;12.862;2023-03-14T05:10:57;0.53;;;0.40;;
12042;SDS011;6082;49.306;12.862;2023-03-14T05:13:23;0.50;;;0.50;;
12042;SDS011;6082;49.306;12.862;2023-03-14T05:15:49;0.40;;;0.40;;
12042;SDS011;6082;49.306;12.862;2023-03-14T05:18:16;2.00;;;0.50;;
12042;SDS011;6082;49.306;12.862;2023-03-14T05:20:43;0.63;;;0.40;;
12042;SDS011;6082;49.306;12.862;2023-03-14T05:23:09;0.70;;;0.50;;
12042;SDS011;6082;49.306;12.862;2023-03-14T05:25:36;0.60;;;0.43;;
12042;SDS011;6082;49.306;12.862;2023-03-14T05:28:02;0.77;;;0.63;;
12042;SDS011;6082;49.306;12.862;2023-03-14T05:30:28;0.63;;;0.50;;
12042;SDS011;6082;49.306;12.862;2023-03-14T05:32:55;0.53;;;0.40;;
12042;SDS011;6082;49.306;12.862;2023-03-14T05:35:25;0.30;;;0.30;;
12042;SDS011;6082;49.306;12.862;2023-03-14T05:37:51;0.30;;;0.30;;
12042;SDS011;6082;49.306;12.862;2023-03-14T05:40:17;0.40;;;0.40;;
12042;SDS011;6082;49.306;12.862;2023-03-14T05:42:43;0.50;;;0.40;;
12042;SDS011;6082;49.306;12.862;2023-03-14T05:45:09;0.40;;;0.40;;
12042;SDS011;6082;49.306;12.862;2023-03-14T05:47:35;0.77;;;0.50;;
12042;SDS011;6082;49.306;12.862;2023-03-14T05:50:02;0.40;;;0.40;;
12042;SDS011;6082;49.306;12.862;2023-03-14T05:52:28;0.70;;;0.70;;
12042;SDS011;6082;49.306;12.862;2023-03-14T05:54:54;0.60;;;0.50;;
12042;SDS011;6082;49.306;12.862;2023-03-14T05:57:20;0.30;;;0.30;;
12042;SDS011;6082;49.306;12.862;2023-03-14T05:59:46;1.03;;;0.50;;
12042;SDS011;6082;49.306;12.862;2023-03-14T06:02:12;0.87;;;0.60;;
12042;SDS011;6082;49.306;12.862;2023-03-14T06:04:38;1.30;;;0.87;;
12042;SDS011;6082;49.306;12.862;2023-03-14T06:07:04;0.87;;;0.63;;
12042;SDS011;6082;49.306;12.862;2023-03-14T06:09:30;0.67;;;0.67;;
12042;SDS011;6082;49.306;12.862;2023-03-14T06:11:56;0.80;;;0.63;;
12042;SDS011;6082;49.306;12.862;2023-03-14T06:14:22;1.00;;;0.70;;
12042;SDS011;6082;49.306;12.862;2023-03-14T06:16:48;0.60;;;0.60;;
12042;SDS011;6082;49.306;12.862;2023-03-14T06:19:15;0.97;;;0.80;;
12042;SDS011;6082;49.306;12.862;2023-03-14T06:21:41;0.70;;;0.70;;
12042;SDS011;6082;49.306;12.862;2023-03-14T06:24:07;0.70;;;0.60;;
12042;SDS011;6082;49.306;12.862;2023-03-14T06:26:34;0.83;;;0.73;;
12042;SDS011;6082;49.306;12.862;2023-03-14T06:29:00;0.90;;;0.70;;
12042;SDS011;6082;49.306;12.862;2023-03-14T06:31:29;1.43;;;0.90;;
12042;SDS011;6082;49.306;12.862;2023-03-14T06:33:55;1.03;;;0.70;;
12042;SDS011;6082;49.306;12.862;2023-03-14T06:36:21;0.70;;;0.70;;
12042;SDS011;6082;49.306;12.862;2023-03-14T06:38:47;0.60;;;0.60;;
12042;SDS011;6082;49.306;12.862;2023-03-14T06:41:13;0.87;;;0.77;;
12042;SDS011;6082;49.306;12.862;2023-03-14T06:43:39;1.20;;;0.93;;
12042;SDS011;6082;49.306;12.862;2023-03-14T06:46:05;2.43;;;1.43;;
12042;SDS011;6082;49.306;12.862;2023-03-14T06:48:32;1.63;;;1.00;;
12042;SDS011;6082;49.306;12.862;2023-03-14T06:50:58;1.53;;;1.00;;
12042;SDS011;6082;49.306;12.862;2023-03-14T06:53:24;0.93;;;0.80;;
12042;SDS011;6082;49.306;12.862;2023-03-14T06:55:50;0.90;;;0.70;;
12042;SDS011;6082;49.306;12.862;2023-03-14T06:58:16;0.60;;;0.60;;
12042;SDS011;6082;49.306;12.862;2023-03-14T07:00:42;1.03;;;0.70;;
12042;SDS011;6082;49.306;12.862;2023-03-14T07:03:09;0.67;;;0.67;;
12042;SDS011;6082;49.306;12.862;2023-03-14T07:05:35;0.60;;;0.60;;
12042;SDS011;6082;49.306;12.862;2023-03-14T07:08:01;0.63;;;0.60;;
12042;SDS011;6082;49.306;12.862;2023-03-14T07:10:28;0.60;;;0.50;;
12042;SDS011;6082;49.306;12.862;2023-03-14T07:12:54;0.40;;;0.40;;
12042;SDS011;6082;49.306;12.862;2023-03-14T07:15:20;0.50;;;0.50;;
12042;SDS011;6082;49.306;12.862;2023-03-14T07:17:46;0.33;;;0.33;;
12042;SDS011;6082;49.306;12.862;2023-03-14T07:20:13;0.47;;;0.47;;
12042;SDS011;6082;49.306;12.862;2023-03-14T07:22:39;0.37;;;0.30;;
12042;SDS011;6082;49.306;12.862;2023-03-14T07:25:05;0.77;;;0.77;;
12042;SDS011;6082;49.306;12.862;2023-03-14T07:27:31;0.30;;;0.30;;
12042;SDS011;6082;49.306;12.862;2023-03-14T07:29:57;0.87;;;0.67;;
12042;SDS011;6082;49.306;12.862;2023-03-14T07:32:23;0.70;;;0.70;;
12042;SDS011;6082;49.306;12.862;2023-03-14T07:34:50;0.57;;;0.57;;
12042;SDS011;6082;49.306;12.862;2023-03-14T07:37:16;0.60;;;0.47;;
12042;SDS011;6082;49.306;12.862;2023-03-14T07:39:42;0.90;;;0.60;;
12042;SDS011;6082;49.306;12.862;2023-03-14T07:42:08;0.43;;;0.43;;
12042;SDS011;6082;49.306;12.862;2023-03-14T07:44:36;1.23;;;0.67;;
12042;SDS011;6082;49.306;12.862;2023-03-14T07:47:02;0.60;;;0.57;;
12042;SDS011;6082;49.306;12.862;2023-03-14T07:49:28;0.83;;;0.60;;
12042;SDS011;6082;49.306;12.862;2023-03-14T07:51:54;1.13;;;0.73;;
12042;SDS011;6082;49.306;12.862;2023-03-14T07:54:20;1.07;;;0.70;;
12042;SDS011;6082;49.306;12.862;2023-03-14T07:56:46;0.50;;;0.50;;
12042;SDS011;6082;49.306;12.862;2023-03-14T07:59:12;0.90;;;0.70;;
12042;SDS011;6082;49.306;12.862;2023-03-14T08:01:38;1.43;;;0.60;;
12042;SDS011;6082;49.306;12.862;2023-03-14T08:04:04;0.43;;;0.40;;
12042;SDS011;6082;49.306;12.862;2023-03-14T08:06:30;0.67;;;0.60;;
12042;SDS011;6082;49.306;12.862;2023-03-14T08:08:56;0.77;;;0.50;;
12042;SDS011;6082;49.306;12.862;2023-03-14T08:11:22;0.70;;;0.50;;
12042;SDS011;6082;49.306;12.862;2023-03-14T08:13:49;0.40;;;0.40;;
12042;SDS011;6082;49.306;12.862;2023-03-14T08:16:18;0.87;;;0.60;;
12042;SDS011;6082;49.306;12.862;2023-03-14T08:18:44;0.37;;;0.37;;
12042;SDS011;6082;49.306;12.862;2023-03-14T08:21:11;0.50;;;0.50;;
12042;SDS011;6082;49.306;12.862;2023-03-14T08:23:37;1.13;;;0.60;;
12042;SDS011;6082;49.306;12.862;2023-03-14T08:26:03;1.03;;;0.67;;
12042;SDS011;6082;49.306;12.862;2023-03-14T08:28:30;1.43;;;0.50;;
12042;SDS011;6082;49.306;12.862;2023-03-14T08:30:58;0.50;;;0.30;;
12042;SDS011;6082;49.306;12.862;2023-03-14T08:33:24;0.40;;;0.40;;
12042;SDS011;6082;49.306;12.862;2023-03-14T08:35:54;0.60;;;0.40;;
12042;SDS011;6082;49.306;12.862;2023-03-14T08:38:20;0.53;;;0.40;;
12042;SDS011;6082;49.306;12.862;2023-03-14T08:40:46;0.43;;;0.30;;
12042;SDS011;6082;49.306;12.862;2023-03-14T08:43:13;0.40;;;0.40;;
12042;SDS011;6082;49.306;12.862;2023-03-14T08:45:39;0.53;;;0.40;;
12042;SDS011;6082;49.306;12.862;2023-03-14T08:48:05;2.80;;;1.73;;
12042;SDS011;6082;49.306;12.862;2023-03-14T08:50:31;1.97;;;1.03;;
12042;SDS011;6082;49.306;12.862;2023-03-14T08:52:57;1.27;;;0.50;;
12042;SDS011;6082;49.306;12.862;2023-03-14T08:55:25;0.60;;;0.50;;
12042;SDS011;6082;49.306;12.862;2023-03-14T08:57:52;1.07;;;0.53;;
12042;SDS011;6082;49.306;12.862;2023-03-14T09:00:18;0.40;;;0.40;;
12042;SDS011;6082;49.306;12.862;2023-03-14T09:02:45;1.40;;;0.60;;
12042;SDS011;6082;49.306;12.862;2023-03-14T09:05:11;0.20;;;0.20;;
12042;SDS011;6082;49.306;12.862;2023-03-14T09:07:38;0.60;;;0.40;;
12042;SDS011;6082;49.306;12.862;2023-03-14T09:10:04;0.30;;;0.30;;
12042;SDS011;6082;49.306;12.862;2023-03-14T09:12:30;1.77;;;0.50;;
12042;SDS011;6082;49.306;12.862;2023-03-14T09:14:57;0.37;;;0.37;;
12042;SDS011;6082;49.306;12.862;2023-03-14T09:17:23;0.60;;;0.60;;
12042;SDS011;6082;49.306;12.862;2023-03-14T09:19:49;0.50;;;0.50;;
12042;SDS011;6082;49.306;12.862;2023-03-14T09:22:15;0.97;;;0.50;;
12042;SDS011;6082;49.306;12.862;2023-03-14T09:24:41;1.13;;;0.60;;
12042;SDS011;6082;49.306;12.862;2023-03-14T09:27:07;0.53;;;0.50;;
12042;SDS011;6082;49.306;12.862;2023-03-14T09:29:34;0.40;;;0.40;;
12042;SDS011;6082;49.306;12.862;2023-03-14T09:32:00;0.57;;;0.30;;
12042;SDS011;6082;49.306;12.862;2023-03-14T09:34:26;0.40;;;0.40;;
12042;SDS011;6082;49.306;12.862;2023-03-14T09:36:52;0.93;;;0.50;;
12042;SDS011;6082;49.306;12.862;2023-03-14T09:39:18;0.40;;;0.40;;
12042;SDS011;6082;49.306;12.862;2023-03-14T09:41:46;0.67;;;0.50;;
12042;SDS011;6082;49.306;12.862;2023-03-14T09:44:14;1.03;;;0.43;;
12042;SDS011;6082;49.306;12.862;2023-03-14T09:46:42;1.13;;;0.30;;
12042;SDS011;6082;49.306;12.862;2023-03-14T09:49:16;1.20;;;0.40;;
12042;SDS011;6082;49.306;12.862;2023-03-14T09:51:44;3.13;;;0.50;;
12042;SDS011;6082;49.306;12.862;2023-03-14T09:54:17;0.30;;;0.20;;
12042;SDS011;6082;49.306;12.862;2023-03-14T09:56:47;0.50;;;0.50;;
12042;SDS011;6082;49.306;12.862;2023-03-14T09:59:13;1.73;;;0.47;;
12042;SDS011;6082;49.306;12.862;2023-03-14T10:01:39;0.40;;;0.40;;
12042;SDS011;6082;49.306;12.862;2023-03-14T10:04:10;0.30;;;0.30;;
12042;SDS011;6082;49.306;12.862;2023-03-14T10:06:38;0.50;;;0.30;;
12042;SDS011;6082;49.306;12.862;2023-03-14T10:09:04;1.03;;;0.50;;
12042;SDS011;6082;49.306;12.862;2023-03-14T10:11:31;0.40;;;0.37;;
12042;SDS011;6082;49.306;12.862;2023-03-14T10:14:07;0.30;;;0.30;;
12042;SDS011;6082;49.306;12.862;2023-03-14T10:16:43;0.30;;;0.30;;
12042;SDS011;6082;49.306;12.862;2023-03-14T10:19:10;0.40;;;0.40;;
12042;SDS011;6082;49.306;12.862;2023-03-14T10:21:38;2.50;;;0.73;;
12042;SDS011;6082;49.306;12.862;2023-03-14T10:26:51;0.73;;;0.33;;
12042;SDS011;6082;49.306;12.862;2023-03-14T10:29:17;0.50;;;0.40;;
12042;SDS011;6082;49.306;12.862;2023-03-14T10:34:17;0.50;;;0.40;;
12042;SDS011;6082;49.306;12.862;2023-03-14T10:36:43;1.70;;;0.30;;
12042;SDS011;6082;49.306;12.862;2023-03-14T10:41:46;1.50;;;0.30;;
12042;SDS011;6082;49.306;12.862;2023-03-14T10:44:12;1.27;;;0.30;;
12042;SDS011;6082;49.306;12.862;2023-03-14T10:46:40;2.83;;;0.40;;
12042;SDS011;6082;49.306;12.862;2023-03-14T10:49:06;0.50;;;0.47;;
12042;SDS011;6082;49.306;12.862;2023-03-14T10:51:32;0.40;;;0.33;;
12042;SDS011;6082;49.306;12.862;2023-03-14T10:54:00;2.07;;;0.50;;
12042;SDS011;6082;49.306;12.862;2023-03-14T10:56:27;1.23;;;0.40;;
12042;SDS011;6082;49.306;12.862;2023-03-14T10:58:58;0.43;;;0.40;;
12042;SDS011;6082;49.306;12.862;2023-03-14T11:07:20;1.77;;;0.70;;
12042;SDS011;6082;49.306;12.862;2023-03-14T11:12:41;1.43;;;0.70;;
12042;SDS011;6082;49.306;12.862;2023-03-14T11:15:21;2.80;;;0.63;;
12042;SDS011;6082;49.306;12.862;2023-03-14T11:20:33;0.50;;;0.50;;
12042;SDS011;6082;49.306;12.862;2023-03-14T11:30:43;0.70;;;0.50;;
12042;SDS011;6082;49.306;12.862;2023-03-14T11:33:34;0.37;;;0.33;;
12042;SDS011;6082;49.306;12.862;2023-03-14T11:40:58;0.47;;;0.40;;
12042;SDS011;6082;49.306;12.862;2023-03-14T11:45:51;0.73;;;0.30;;
12042;SDS011;6082;49.306;12.862;2023-03-14T11:48:41;0.30;;;0.30;;
12042;SDS011;6082;49.306;12.862;2023-03-14T11:51:11;0.60;;;0.30;;
12042;SDS011;6082;49.306;12.862;2023-03-14T11:53:47;0.53;;;0.50;;
12042;SDS011;6082;49.306;12.862;2023-03-14T11:56:17;0.27;;;0.27;;
12042;SDS011;6082;49.306;12.862;2023-03-14T11:58:54;0.37;;;0.30;;
12042;SDS011;6082;49.306;12.862;2023-03-14T12:01:21;0.70;;;0.50;;
12042;SDS011;6082;49.306;12.862;2023-03-14T12:04:09;0.97;;;0.50;;
12042;SDS011;6082;49.306;12.862;2023-03-14T12:06:45;1.33;;;0.40;;
12042;SDS011;6082;49.306;12.862;2023-03-14T12:09:12;0.50;;;0.40;;
12042;SDS011;6082;49.306;12.862;2023-03-14T12:11:49;0.50;;;0.40;;
12042;SDS011;6082;49.306;12.862;2023-03-14T12:16:44;1.17;;;0.53;;
12042;SDS011;6082;49.306;12.862;2023-03-14T12:22:24;0.50;;;0.30;;
12042;SDS011;6082;49.306;12.862;2023-03-14T12:24:31;0.90;;;0.70;;
12042;SDS011;6082;49.306;12.862;2023-03-14T12:26:58;1.10;;;1.00;;
12042;SDS011;6082;49.306;12.862;2023-03-14T12:29:25;1.30;;;0.47;;
12042;SDS011;6082;49.306;12.862;2023-03-14T12:32:21;2.53;;;1.30;;
12042;SDS011;6082;49.306;12.862;2023-03-14T12:34:41;5.33;;;1.93;;
12042;SDS011;6082;49.306;12.862;2023-03-14T12:40:17;3.80;;;1.97;;
12042;SDS011;6082;49.306;12.862;2023-03-14T12:45:14;2.97;;;1.70;;
12042;SDS011;6082;49.306;12.862;2023-03-14T12:47:41;2.10;;;1.10;;
12042;SDS011;6082;49.306;12.862;2023-03-14T12:50:13;1.30;;;0.97;;
12042;SDS011;6082;49.306;12.862;2023-03-14T12:52:53;1.47;;;1.10;;
12042;SDS011;6082;49.306;12.862;2023-03-14T12:55:53;0.90;;;0.60;;
12042;SDS011;6082;49.306;12.862;2023-03-14T13:00:42;0.90;;;0.70;;
12042;SDS011;6082;49.306;12.862;2023-03-14T13:05:56;0.57;;;0.50;;
12042;SDS011;6082;49.306;12.862;2023-03-14T13:08:44;0.97;;;0.70;;
12042;SDS011;6082;49.306;12.862;2023-03-14T13:11:10;1.13;;;0.80;;
12042;SDS011;6082;49.306;12.862;2023-03-14T13:13:40;1.00;;;0.90;;
12042;SDS011;6082;49.306;12.862;2023-03-14T13:16:09;1.33;;;0.87;;
12042;SDS011;6082;49.306;12.862;2023-03-14T13:18:39;1.23;;;0.70;;
12042;SDS011;6082;49.306;12.862;2023-03-14T13:21:22;1.10;;;0.70;;
12042;SDS011;6082;49.306;12.862;2023-03-14T13:23:58;0.87;;;0.60;;
12042;SDS011;6082;49.306;12.862;2023-03-14T13:26:32;0.70;;;0.70;;
12042;SDS011;6082;49.306;12.862;2023-03-14T13:28:59;1.13;;;0.67;;
12042;SDS011;6082;49.306;12.862;2023-03-14T13:31:25;0.50;;;0.40;;
12042;SDS011;6082;49.306;12.862;2023-03-14T13:34:01;0.93;;;0.80;;
12042;SDS011;6082;49.306;12.862;2023-03-14T13:36:27;0.77;;;0.40;;
12042;SDS011;6082;49.306;12.862;2023-03-14T13:38:58;0.50;;;0.40;;
12042;SDS011;6082;49.306;12.862;2023-03-14T13:41:24;0.50;;;0.47;;
12042;SDS011;6082;49.306;12.862;2023-03-14T13:43:58;0.73;;;0.40;;
12042;SDS011;6082;49.306;12.862;2023-03-14T13:46:27;2.33;;;0.60;;
12042;SDS011;6082;49.306;12.862;2023-03-14T13:48:55;0.50;;;0.50;;
12042;SDS011;6082;49.306;12.862;2023-03-14T13:51:21;0.80;;;0.50;;
12042;SDS011;6082;49.306;12.862;2023-03-14T13:53:51;1.80;;;0.80;;
12042;SDS011;6082;49.306;12.862;2023-03-14T13:56:17;2.83;;;1.77;;
12042;SDS011;6082;49.306;12.862;2023-03-14T13:58:44;0.70;;;0.70;;
12042;SDS011;6082;49.306;12.862;2023-03-14T14:03:44;3.37;;;2.30;;
12042;SDS011;6082;49.306;12.862;2023-03-14T14:06:21;5.13;;;2.87;;
12042;SDS011;6082;49.306;12.862;2023-03-14T14:08:49;3.50;;;2.40;;
12042;SDS011;6082;49.306;12.862;2023-03-14T14:11:24;2.10;;;1.47;;
12042;SDS011;6082;49.306;12.862;2023-03-14T14:13:52;2.30;;;1.37;;
12042;SDS011;6082;49.306;12.862;2023-03-14T14:16:18;4.37;;;1.30;;
12042;SDS011;6082;49.306;12.862;2023-03-14T14:18:46;1.13;;;0.70;;
12042;SDS011;6082;49.306;12.862;2023-03-14T14:21:12;0.63;;;0.47;;
12042;SDS011;6082;49.306;12.862;2023-03-14T14:23:39;2.73;;;0.50;;
12042;SDS011;6082;49.306;12.862;2023-03-14T14:26:06;1.93;;;1.30;;
12042;SDS011;6082;49.306;12.862;2023-03-14T14:28:33;0.77;;;0.73;;
12042;SDS011;6082;49.306;12.862;2023-03-14T14:33:45;1.50;;;0.83;;
12042;SDS011;6082;49.306;12.862;2023-03-14T14:36:17;0.90;;;0.73;;
12042;SDS011;6082;49.306;12.862;2023-03-14T14:38:54;1.07;;;0.80;;
12042;SDS011;6082;49.306;12.862;2023-03-14T14:41:26;1.13;;;0.67;;
12042;SDS011;6082;49.306;12.862;2023-03-14T14:43:52;2.30;;;1.30;;
12042;SDS011;6082;49.306;12.862;2023-03-14T14:46:18;1.37;;;1.00;;
12042;SDS011;6082;49.306;12.862;2023-03-14T14:48:45;1.17;;;0.77;;
12042;SDS011;6082;49.306;12.862;2023-03-14T14:51:22;0.67;;;0.60;;
12042;SDS011;6082;49.306;12.862;2023-03-14T14:53:48;1.47;;;0.80;;
12042;SDS011;6082;49.306;12.862;2023-03-14T14:56:19;2.03;;;1.30;;
12042;SDS011;6082;49.306;12.862;2023-03-14T14:58:47;3.40;;;1.37;;
12042;SDS011;6082;49.306;12.862;2023-03-14T15:01:22;1.00;;;0.80;;
12042;SDS011;6082;49.306;12.862;2023-03-14T15:03:51;0.97;;;0.60;;
12042;SDS011;6082;49.306;12.862;2023-03-14T15:06:18;1.50;;;1.00;;
12042;SDS011;6082;49.306;12.862;2023-03-14T15:08:45;2.03;;;0.90;;
12042;SDS011;6082;49.306;12.862;2023-03-14T15:11:15;1.63;;;0.73;;
12042;SDS011;6082;49.306;12.862;2023-03-14T15:13:42;0.30;;;0.30;;
12042;SDS011;6082;49.306;12.862;2023-03-14T15:16:09;0.33;;;0.33;;
12042;SDS011;6082;49.306;12.862;2023-03-14T15:18:36;0.50;;;0.43;;
12042;SDS011;6082;49.306;12.862;2023-03-14T15:21:02;0.87;;;0.40;;
12042;SDS011;6082;49.306;12.862;2023-03-14T15:23:28;2.73;;;1.50;;
12042;SDS011;6082;49.306;12.862;2023-03-14T15:25:54;1.07;;;0.77;;
12042;SDS011;6082;49.306;12.862;2023-03-14T15:28:23;1.30;;;1.07;;
12042;SDS011;6082;49.306;12.862;2023-03-14T15:30:50;1.53;;;1.00;;
12042;SDS011;6082;49.306;12.862;2023-03-14T15:33:17;1.20;;;1.00;;
12042;SDS011;6082;49.306;12.862;2023-03-14T15:35:43;1.83;;;0.90;;
12042;SDS011;6082;49.306;12.862;2023-03-14T15:38:12;1.07;;;0.80;;
12042;SDS011;6082;49.306;12.862;2023-03-14T15:40:39;1.83;;;1.00;;
12042;SDS011;6082;49.306;12.862;2023-03-14T15:43:05;3.60;;;1.53;;
12042;SDS011;6082;49.306;12.862;2023-03-14T15:45:31;2.57;;;1.53;;
12042;SDS011;6082;49.306;12.862;2023-03-14T15:47:58;2.87;;;1.70;;
12042;SDS011;6082;49.306;12.862;2023-03-14T15:50:24;2.43;;;1.20;;
12042;SDS011;6082;49.306;12.862;2023-03-14T15:52:50;1.87;;;1.47;;
12042;SDS011;6082;49.306;12.862;2023-03-14T15:55:17;0.87;;;0.73;;